• Join FlightAware (Why Join?)
  • Login
  • US Flag 
10:06AM EDT


 

Airport Tracker/Info


-or-


 

Live Flight TrackerFlight Track Log ✈ UAL3746 ✈ 24-Aug-2013 ✈ KORD - KMHT

Flight Track Log - Related Links

Times and Time Zones

All times are in EDT time to prevent confusion due to time zone crossing. See the UAL3746 flight status page for this flight to view local times or setup timezone preferences in your user account.

Time Position Orientation Groundspeed Altitude Reporting Facility
EDT Latitude Longitude Course Direction KTS MPH feet Rate Location/Type
01:27PM 41.9833 -87.9333 90° East 204 235 2,100  Level Chicago TRACON
01:28PM 42.0333 -87.9000 26° Northeast 244 281 4,100 1,980 Climbing Chicago TRACON
01:29PM 42.0500 -87.8167 75° East 248 285 6,100 2,280 Climbing Chicago TRACON
01:30PM 42.1775 -87.3177 66° East  Level FlightAware Approximate
01:31PM 42.2277 -87.1669 66° East  Level FlightAware Approximate
01:31PM 42.1119 -87.6261 66° East 287 330 10,900  Level Chicago Center
01:32PM 42.2667 -87.0126 90° East  Level FlightAware Approximate
01:32PM 42.1436 -87.5206 68° East 300 345 13,100  Level Chicago Center
01:33PM 42.1794 -87.4003 68° East 339 390 14,100 1,320 Climbing Chicago Center
01:34PM 42.2183 -87.2700 68° East 369 425 15,900 1,620 Climbing Chicago Center
01:35PM 42.2564 -87.1386 69° East 376 433 17,500 1,560 Climbing Chicago Center
01:36PM 42.2817 -86.9989 76° East 385 443 19,200 1,620 Climbing Chicago Center
01:37PM 42.2881 -86.8186 87° East 400 460 20,900 1,560 Climbing Chicago Center
01:38PM 42.2947 -86.6628 87° East 408 470 22,500 1,260 Climbing Chicago Center
01:39PM 42.3014 -86.5050 87° East 418 481 23,600 1,140 Climbing Chicago Center
01:40PM 42.3056 -86.3439 88° East 430 495 24,900 1,200 Climbing Chicago Center
01:41PM 42.3122 -86.1811 87° East 436 502 26,100 960 Climbing Chicago Center
01:42PM 42.3144 -86.0144 89° East 445 512 27,000 960 Climbing Chicago Center
01:43PM 42.3119 -85.8094 91° East 458 527 28,200 1,080 Climbing Chicago Center
01:44PM 42.3100 -85.6392 91° East 458 527 29,300 780 Climbing Chicago Center
01:45PM 42.3075 -85.4619 91° East 471 542 29,900 540 Climbing Chicago Center
01:46PM 42.3044 -85.2825 91° East 479 551 30,500 480 Climbing Chicago Center
01:47PM 42.3019 -85.1025 91° East 482 555 31,000 240 Climbing Chicago Center
01:48PM 42.2981 -84.9175 92° East 491 565 31,000  Level Chicago Center
01:49PM 42.2928 -84.7031 92° East 482 555 31,000  Level Chicago Center
01:50PM 42.2881 -84.5311 92° East 464 534 31,000  Level Chicago Center
01:52PM 42.3031 -84.3611 83° East 457 526 31,000  Level Chicago Center
01:52PM 42.3186 -84.2461 80° East 454 522 31,000  Level Cleveland Center
01:53PM 42.3414 -84.0756 80° East 460 529 31,000  Level Cleveland Center
01:54PM 42.3653 -83.9047 79° East 461 531 31,000  Level Cleveland Center
01:55PM 42.3886 -83.7339 79° East 460 529 31,000  Level Cleveland Center
01:56PM 42.4106 -83.5375 81° East 465 535 31,000  Level Cleveland Center
01:57PM 42.4169 -83.3586 87° East 472 543 31,000  Level Cleveland Center
01:58PM 42.4219 -83.1986 88° East 470 541 31,000  Level Cleveland Center
01:59PM 42.4286 -82.9881 87° East 467 537 31,000  Level Cleveland Center
02:00PM 42.4336 -82.8114 88° East 468 539 31,000  Level Cleveland Center
02:01PM 42.4397 -82.6358 87° East 469 540 31,000  Level Cleveland Center
02:03PM 42.4444 -82.4581 88° East 471 542 31,000  Level Cleveland Center
02:04PM 42.4492 -82.2819 88° East 471 542 31,000  Level Cleveland Center
02:05PM 42.4536 -82.1050 88° East 472 543 31,000  Level Cleveland Center
02:06PM 42.4589 -81.8925 88° East 472 543 31,000  Level Cleveland Center
02:07PM 42.4625 -81.7217 88° East 472 543 31,000  Level Cleveland Center
02:08PM 42.4664 -81.5422 88° East 471 542 31,000  Level Cleveland Center
02:09PM 42.4700 -81.3633 88° East 471 542 31,000  Level Cleveland Center
02:10PM 42.4731 -81.1839 89° East 471 542 31,000  Level Cleveland Center
02:11PM 42.4758 -81.0058 89° East 470 541 31,000  Level Cleveland Center
02:12PM 42.4789 -80.7975 89° East 469 540 31,000  Level Cleveland Center
02:13PM 42.4806 -80.6197 89° East 467 537 31,000  Level Cleveland Center
02:14PM 42.4842 -80.4414 88° East 470 541 31,000  Level Cleveland Center
02:15PM 42.4850 -80.2631 90° East 469 540 31,000  Level Cleveland Center
02:16PM 42.4869 -80.0847 89° East 470 541 31,000  Level Cleveland Center
02:17PM 42.4886 -79.8969 89° East 467 537 31,000  Level Cleveland Center
02:18PM 42.4894 -79.7200 90° East 471 542 31,000  Level Cleveland Center
02:19PM 42.4897 -79.5433 90° East 471 542 31,000  Level Cleveland Center
02:20PM 42.4894 -79.3669 90° East 471 542 31,000  Level Cleveland Center
02:21PM 42.4964 -79.1917 87° East 466 536 31,000  Level Cleveland Center
02:22PM 42.5108 -78.9817 85° East 467 537 31,000  Level Cleveland Center
02:23PM 42.5231 -78.8075 85° East 466 536 31,000  Level Cleveland Center
02:24PM 42.5336 -78.6339 85° East 466 536 31,000  Level Cleveland Center
02:25PM 42.5450 -78.4592 85° East 465 535 31,000  Level Cleveland Center
02:26PM 42.5567 -78.2839 85° East 467 537 31,000  Level Cleveland Center
02:27PM 42.5669 -78.1089 85° East 469 540 31,000  Level Cleveland Center
02:28PM 42.5794 -77.8986 85° East 469 540 31,000  Level Cleveland Center
02:29PM 42.5886 -77.7206 86° East 468 539 31,000  Level Cleveland Center
02:30PM 42.6003 -77.5456 85° East 467 537 31,000  Level Cleveland Center
02:31PM 42.6086 -77.3872 86° East 469 540 31,000  Level Cleveland Center
02:32PM 42.6200 -77.1783 86° East 466 536 31,000  Level Cleveland Center
02:33PM 42.6272 -77.0369 86° East 471 542 31,000  Level Boston Center
02:34PM 42.6361 -76.8608 86° East 469 540 31,000  Level Boston Center
02:35PM 42.6456 -76.6847 86° East 470 541 31,000  Level Boston Center
02:36PM 42.6544 -76.5092 86° East 468 539 31,000  Level Boston Center
02:37PM 42.6639 -76.2975 86° East 470 541 31,000  Level Boston Center
02:38PM 42.6714 -76.1414 86° East 467 537 31,000  Level Boston Center
02:40PM 42.6781 -75.9650 87° East 470 541 31,000  Level Boston Center
02:41PM 42.6875 -75.7553 86° East 468 539 31,000  Level Boston Center
02:42PM 42.6939 -75.5792 87° East 469 540 31,000 -240 Level Boston Center
02:43PM 42.7003 -75.4039 87° East 470 541 30,600 -480 Descending Boston Center
02:44PM 42.7058 -75.2317 87° East 463 533 30,100 -540 Descending Boston Center
02:45PM 42.7125 -75.0522 87° East 479 551 29,600 -480 Descending Boston Center
02:46PM 42.7175 -74.8756 88° East 474 545 29,100 -300 Descending Boston Center
02:47PM 42.7239 -74.6644 88° East 469 540 29,000 -60 Descending Boston Center
02:48PM 42.7294 -74.4892 87° East 467 537 29,000 -120 Level Boston Center
02:49PM 42.7350 -74.3125 87° East 469 540 28,800 -1,020 Descending Boston Center
02:50PM 42.7394 -74.1342 88° East 472 543 26,900 -2,040 Descending Boston Center
02:51PM 42.7447 -73.9478 88° East 468 539 24,700 -1,440 Descending Boston Center
02:52PM 42.7489 -73.7758 88° East 458 527 24,000 -660 Descending Boston Center
02:53PM 42.7553 -73.6103 87° East 441 507 23,400 -1,020 Descending Boston Center
02:54PM 42.7611 -73.4497 87° East 426 490 21,900 -1,500 Descending Boston Center
02:55PM 42.7669 -73.2925 87° East 416 479 20,400 -1,440 Descending Boston Center
02:56PM 42.7722 -73.1175 88° East 408 470 19,000 -720 Descending Boston Center
02:57PM 42.7772 -72.9789 87° East 414 476 19,000 -480 Level Boston Center
02:58PM 42.7814 -72.8189 88° East 418 481 18,100 -1,080 Descending Boston Center
02:59PM 42.7856 -72.6619 88° East 414 476 16,900 -1,560 Descending Boston Center
03:00PM 42.7906 -72.4794 88° East 404 465 14,900 -1,800 Descending Boston Center
03:01PM 42.7944 -72.3308 88° East 395 455 13,200 -960 Descending Boston Center
03:02PM 42.8039 -72.1744 85° East 389 448 13,000 -780 Descending Boston Center
03:03PM 42.8147 -72.0394 84° East 365 420 11,700 -1,200 Descending Boston Center
03:04PM 42.8239 -71.9139 84° East 339 390 10,500 -1,320 Descending Boston Center
03:05PM 42.8194 -71.7975 93° East 292 336 9,100 -1,440 Descending Boston Center
03:06PM 42.8111 -71.6942 96° East 280 322 7,600 -1,620 Descending Boston Center
03:07PM 42.8017 -71.5961 97° East 261 300 5,800 -1,620 Descending Boston Center
03:08PM 42.7942 -71.4953 96° East 249 287 4,300 -1,380 Descending Boston Center
03:09PM 42.7967 -71.4136 88° East 225 259 3,100 -1,200 Descending Boston Center
03:10PM 42.8369 -71.3767 34° Northeast 184 212 2,000 -960 Descending Boston Center
03:11PM 42.8781 -71.4008 337° Northwest 148 170 1,200 -780 Descending Boston Center
03:12PM 42.9139 -71.4231 336° Northwest 143 165 400 -420 Descending Boston Center
03:13PM 42.9439 -71.4422 335° Northwest 142 163 400  Level Boston Center